Terminal Aerodrome Forecast
Issued by NWS Twin Cities, MN

Home | Current Version | Previous Version | Graphics & Text | Print | Product List | Glossary On
Versions: 1 2 3 4 5 6 7 8 9 10 11 12 13 14 15 16 17 18 19 20 21 22 23 24 25 26
380
FTUS43 KMPX 232055 AAB
TAFMSP
TAF AMD
KMSP 232055Z 2321/2424 21014G24KT P6SM VCSH SCT050 BKN090
      TEMPO 2322/2402 2SM TSRA OVC040CB
     FM240200 20009KT 6SM -SHRA BR SCT025 OVC035
     FM240600 20005KT 5SM BR BKN025
     FM241000 25004KT 4SM BR BKN015
     FM241400 27004KT P6SM SCT025=

USA.gov is the U.S. government's official web portal to all federal, state and local government web resources and services.